createdAt,value
2018-01-31T01:52:21.085Z,99.90
2018-01-31T01:54:24.573Z,99.90
2018-01-31T01:56:50.977Z,99.90
2018-01-31T01:59:17.384Z,99.90
2018-01-31T02:01:43.765Z,99.90
2018-01-31T02:04:10.185Z,99.90
2018-01-31T02:06:36.643Z,99.90
2018-01-31T02:09:03.140Z,99.90
2018-01-31T02:11:30.293Z,99.90
2018-01-31T02:13:57.423Z,99.90
2018-01-31T02:16:23.841Z,99.90
2018-01-31T02:18:50.225Z,99.90
2018-01-31T02:21:16.683Z,99.90
2018-01-31T02:23:43.070Z,99.90
2018-01-31T02:26:09.498Z,99.90
2018-01-31T02:28:42.857Z,99.90
2018-01-31T02:31:09.253Z,99.90
2018-01-31T02:33:36.378Z,99.90
2018-01-31T02:36:02.795Z,99.90
2018-01-31T02:38:41.322Z,99.90
2018-01-31T02:41:07.722Z,99.90
2018-01-31T02:43:34.130Z,99.90
2018-01-31T02:46:00.520Z,99.90
2018-01-31T02:48:27.742Z,99.90
2018-01-31T02:50:54.162Z,99.90
2018-01-31T02:53:20.581Z,99.90
2018-01-31T02:55:47.720Z,99.90
2018-01-31T02:58:14.838Z,99.90
2018-01-31T03:00:41.269Z,99.90
2018-01-31T03:03:07.678Z,99.90
2018-01-31T03:05:34.106Z,99.90
2018-01-31T03:08:00.534Z,99.90
2018-01-31T03:10:26.922Z,99.90
2018-01-31T03:12:53.356Z,99.90
2018-01-31T03:15:19.733Z,99.90
2018-01-31T03:17:46.205Z,99.90
2018-01-31T03:20:12.678Z,99.90
2018-01-31T03:22:39.848Z,99.90
2018-01-31T03:25:06.251Z,99.90
2018-01-31T03:27:32.676Z,99.90
2018-01-31T03:29:59.095Z,99.90
2018-01-31T03:32:25.512Z,99.90
2018-01-31T03:34:51.898Z,99.90
2018-01-31T03:37:19.038Z,99.90
2018-01-31T03:39:47.353Z,99.90
2018-01-31T03:42:14.593Z,99.90
2018-01-31T03:44:41.752Z,99.90
2018-01-31T03:47:08.215Z,99.90
2018-01-31T03:49:34.837Z,99.90
2018-01-31T03:52:01.521Z,99.90
2018-01-31T03:54:27.938Z,99.90
2018-01-31T03:56:54.346Z,99.90
2018-01-31T03:59:20.746Z,99.90
2018-01-31T04:01:47.133Z,99.90
2018-01-31T04:04:16.025Z,99.90
2018-01-31T04:06:42.560Z,99.90
2018-01-31T04:09:09.043Z,99.90
2018-01-31T04:11:36.279Z,99.90
2018-01-31T04:14:02.694Z,99.90
2018-01-31T04:16:29.100Z,99.90
2018-01-31T04:18:55.537Z,99.90
2018-01-31T04:21:21.998Z,99.90
2018-01-31T04:23:48.422Z,99.90
2018-01-31T04:26:14.962Z,99.90
2018-01-31T04:28:41.362Z,99.90
2018-01-31T04:31:08.526Z,99.90
2018-01-31T04:33:34.940Z,99.90
2018-01-31T04:36:02.087Z,99.90
2018-01-31T04:38:29.230Z,99.90
2018-01-31T04:40:55.611Z,99.90
2018-01-31T04:43:22.021Z,99.90
2018-01-31T04:45:49.181Z,99.90
2018-01-31T04:48:15.632Z,99.90
2018-01-31T04:50:42.053Z,99.90
2018-01-31T04:53:08.478Z,99.90
2018-01-31T04:55:34.878Z,99.90
2018-01-31T04:58:01.282Z,99.90
2018-01-31T05:00:27.685Z,99.90
2018-01-31T05:02:54.110Z,99.90
2018-01-31T05:05:21.289Z,99.90
2018-01-31T05:07:48.179Z,99.90
2018-01-31T05:10:14.656Z,99.90
2018-01-31T05:12:41.085Z,99.90
2018-01-31T05:15:07.525Z,99.90
2018-01-31T05:17:33.910Z,99.90
2018-01-31T05:20:00.336Z,99.90
2018-01-31T05:22:26.721Z,99.90
2018-01-31T05:24:53.154Z,99.90
2018-01-31T05:27:19.546Z,99.90
2018-01-31T05:29:45.971Z,99.90
2018-01-31T05:32:12.448Z,99.90
2018-01-31T05:34:39.561Z,99.90
2018-01-31T05:37:05.997Z,99.90
2018-01-31T05:39:32.387Z,99.90
2018-01-31T05:41:58.801Z,99.90
2018-01-31T05:44:25.941Z,99.90
2018-01-31T05:46:53.095Z,99.90
2018-01-31T05:49:20.250Z,99.90
2018-01-31T05:51:46.637Z,99.90
2018-01-31T05:54:13.221Z,99.90
2018-01-31T05:56:39.448Z,99.90
2018-01-31T05:59:06.598Z,99.90
2018-01-31T06:01:33.761Z,99.90
2018-01-31T06:04:00.909Z,99.90
2018-01-31T06:06:28.054Z,99.90
2018-01-31T06:08:54.440Z,99.90
2018-01-31T06:11:20.811Z,99.90
2018-01-31T06:13:47.225Z,99.90
2018-01-31T06:16:13.611Z,99.90
2018-01-31T06:18:46.897Z,99.90
2018-01-31T06:21:14.080Z,99.90
2018-01-31T06:23:40.509Z,99.90
2018-01-31T06:26:06.997Z,99.90
2018-01-31T06:28:33.394Z,99.90
2018-01-31T06:30:59.796Z,99.90
2018-01-31T06:33:26.222Z,99.90
2018-01-31T06:35:53.388Z,99.90
2018-01-31T06:38:19.798Z,99.90
2018-01-31T06:40:46.941Z,99.90
2018-01-31T06:43:29.593Z,99.90
2018-01-31T06:45:56.066Z,99.90
2018-01-31T06:48:22.445Z,99.90
2018-01-31T06:50:48.877Z,99.90
2018-01-31T06:53:16.015Z,99.90
2018-01-31T06:55:43.152Z,99.90
2018-01-31T06:58:09.609Z,99.90
2018-01-31T07:00:36.772Z,99.90
2018-01-31T07:03:03.150Z,99.90
2018-01-31T07:05:29.592Z,99.90
2018-01-31T07:07:56.019Z,99.90
2018-01-31T07:10:22.410Z,99.90
2018-01-31T07:12:48.840Z,99.90
2018-01-31T07:15:16.018Z,99.90
2018-01-31T07:17:42.430Z,99.90
2018-01-31T07:20:08.850Z,99.90
2018-01-31T07:22:36.005Z,99.90
2018-01-31T07:25:03.195Z,99.90
2018-01-31T07:27:29.794Z,99.90
2018-01-31T07:29:56.963Z,99.90
2018-01-31T07:32:23.367Z,99.90
2018-01-31T07:34:49.787Z,99.90
2018-01-31T07:37:16.212Z,99.90
2018-01-31T07:39:42.618Z,99.90
2018-01-31T07:42:09.046Z,99.90
2018-01-31T07:44:35.482Z,99.90
2018-01-31T07:47:01.886Z,99.90
2018-01-31T07:49:29.025Z,99.90
2018-01-31T07:51:55.612Z,99.90
2018-01-31T07:54:21.986Z,99.90
2018-01-31T07:56:48.406Z,99.90
2018-01-31T07:59:14.838Z,99.90
2018-01-31T08:01:41.251Z,99.90
2018-01-31T08:04:07.661Z,99.90
2018-01-31T08:06:34.095Z,99.90
2018-01-31T08:09:00.477Z,99.90
2018-01-31T08:11:26.897Z,99.90
2018-01-31T08:13:53.342Z,99.90
2018-01-31T08:16:19.765Z,99.90
2018-01-31T08:18:46.197Z,99.90
2018-01-31T08:21:12.622Z,99.90
2018-01-31T08:23:39.026Z,99.90
2018-01-31T08:26:06.197Z,99.90
2018-01-31T08:28:32.599Z,99.90
2018-01-31T08:30:59.778Z,99.90
2018-01-31T08:33:26.185Z,99.90
2018-01-31T08:35:53.333Z,99.90
2018-01-31T08:38:20.484Z,99.90
2018-01-31T08:40:46.880Z,99.90
2018-01-31T08:43:13.319Z,99.90
2018-01-31T08:45:39.755Z,99.90
2018-01-31T08:48:06.168Z,99.90
2018-01-31T08:50:32.557Z,99.90
2018-01-31T08:52:59.765Z,99.90
2018-01-31T08:55:26.212Z,99.90
2018-01-31T08:57:52.629Z,99.90
2018-01-31T09:00:19.041Z,99.90
2018-01-31T09:02:45.482Z,99.90
2018-01-31T09:05:11.904Z,99.90
2018-01-31T09:07:38.337Z,99.90
2018-01-31T09:10:04.786Z,99.90
2018-01-31T09:12:31.177Z,99.90
2018-01-31T09:14:57.609Z,99.90
2018-01-31T09:17:24.035Z,99.90
2018-01-31T09:19:50.438Z,99.90
2018-01-31T09:22:16.871Z,99.90
2018-01-31T09:24:43.341Z,99.90
2018-01-31T09:27:09.786Z,99.90
2018-01-31T09:29:36.218Z,99.90
2018-01-31T09:32:02.632Z,99.90
2018-01-31T09:34:29.063Z,99.90
2018-01-31T09:36:55.469Z,99.90
2018-01-31T09:39:21.951Z,99.90
2018-01-31T09:41:48.366Z,99.90
2018-01-31T09:44:14.766Z,99.90
2018-01-31T09:46:41.201Z,99.90
2018-01-31T09:49:07.642Z,99.90
2018-01-31T09:51:34.067Z,99.90
2018-01-31T09:54:00.493Z,99.90
2018-01-31T09:56:27.689Z,99.90
2018-01-31T09:58:54.128Z,99.90
2018-01-31T10:01:20.617Z,99.90
2018-01-31T10:03:47.060Z,99.90
2018-01-31T10:06:13.442Z,99.90
2018-01-31T10:08:39.834Z,99.90
2018-01-31T10:11:06.270Z,99.90
2018-01-31T10:13:32.682Z,99.90
2018-01-31T10:15:59.822Z,99.90
2018-01-31T10:18:26.993Z,99.90
2018-01-31T10:20:53.380Z,99.90
2018-01-31T10:23:19.770Z,99.90
2018-01-31T10:25:46.197Z,99.90
2018-01-31T10:28:19.649Z,99.90
2018-01-31T10:30:46.102Z,99.90
2018-01-31T10:33:12.485Z,99.90
2018-01-31T10:35:38.974Z,99.90
2018-01-31T10:38:05.455Z,99.90
2018-01-31T10:40:31.866Z,99.90
2018-01-31T10:42:58.269Z,99.90
2018-01-31T10:45:24.834Z,99.90
2018-01-31T10:47:51.946Z,99.90
2018-01-31T10:50:18.369Z,99.90
2018-01-31T10:52:44.797Z,99.90
2018-01-31T10:57:37.653Z,99.90
2018-01-31T11:00:04.151Z,99.90
2018-01-31T11:02:30.554Z,99.90
2018-01-31T11:04:56.948Z,99.90
2018-01-31T11:07:23.337Z,99.90
2018-01-31T11:09:49.740Z,99.90
2018-01-31T11:12:16.157Z,99.90
2018-01-31T11:14:42.555Z,99.90
2018-01-31T11:17:09.712Z,99.90
2018-01-31T11:19:36.914Z,99.90
2018-01-31T11:22:03.294Z,99.90
2018-01-31T11:24:30.483Z,99.90
2018-01-31T11:26:56.932Z,99.90
2018-01-31T11:29:23.335Z,99.90
2018-01-31T11:31:49.778Z,99.90
2018-01-31T11:34:16.174Z,99.90
2018-01-31T11:36:43.309Z,99.90
2018-01-31T11:39:10.506Z,99.90
2018-01-31T11:41:36.926Z,99.90
2018-01-31T11:44:03.352Z,99.90
2018-01-31T11:46:30.527Z,99.90
2018-01-31T11:48:56.934Z,99.90
2018-01-31T11:51:23.344Z,99.90
2018-01-31T11:53:49.774Z,99.90
2018-01-31T11:56:16.284Z,99.90
2018-01-31T11:58:42.664Z,99.90
2018-01-31T12:01:09.827Z,99.90
2018-01-31T12:03:36.976Z,99.90
2018-01-31T12:06:04.114Z,99.90
2018-01-31T12:08:30.534Z,99.90
2018-01-31T12:10:56.937Z,99.90
2018-01-31T12:13:35.452Z,98.90
2018-01-31T12:19:25.051Z,99.50
2018-01-31T12:21:51.458Z,97.60
2018-01-31T12:24:30.930Z,96.90
2018-01-31T12:27:09.666Z,96.90
2018-01-31T12:29:54.217Z,96.30
2018-01-31T12:32:32.863Z,95.60
2018-01-31T12:35:11.518Z,94.00
2018-01-31T12:37:50.974Z,93.70
2018-01-31T12:40:17.193Z,93.70
2018-01-31T12:42:44.124Z,95.60
2018-01-31T12:45:11.006Z,96.20
2018-01-31T12:47:49.846Z,96.00
2018-01-31T12:50:28.467Z,95.40
2018-01-31T13:06:35.418Z,98.50
2018-01-31T13:09:14.112Z,99.90
2018-01-31T13:11:53.601Z,99.90
2018-01-31T13:14:32.307Z,99.90
2018-01-31T13:17:11.071Z,99.90
2018-01-31T13:19:49.758Z,99.90
2018-01-31T13:22:42.601Z,99.50
2018-01-31T13:25:21.217Z,99.40
2018-01-31T13:28:06.926Z,94.70
2018-01-31T13:30:45.541Z,94.60
2018-01-31T13:33:25.181Z,94.30
2018-01-31T13:36:03.801Z,93.20
2018-01-31T13:38:42.507Z,92.90
2018-01-31T13:44:22.217Z,93.90
2018-01-31T13:47:01.125Z,96.90
2018-01-31T13:49:40.055Z,96.60
2018-01-31T13:52:24.942Z,97.60
2018-01-31T13:55:03.665Z,96.80
2018-01-31T13:57:42.279Z,94.90
2018-01-31T14:00:35.704Z,95.40
2018-01-31T14:03:15.170Z,99.40
2018-01-31T14:05:53.924Z,99.40
2018-01-31T14:08:32.722Z,99.90
2018-01-31T14:11:11.339Z,98.00
2018-01-31T14:13:49.922Z,96.80
2018-01-31T14:16:29.421Z,97.60
2018-01-31T14:19:08.275Z,97.50
2018-01-31T14:21:47.122Z,97.80
2018-01-31T14:24:25.921Z,97.70
2018-01-31T14:27:04.443Z,94.30
2018-01-31T14:29:43.078Z,94.60
2018-01-31T14:32:21.821Z,95.60
2018-01-31T14:35:01.309Z,97.60
2018-01-31T14:37:27.742Z,97.60
2018-01-31T14:39:54.189Z,95.40
2018-01-31T14:42:20.419Z,97.90
2018-01-31T14:44:46.584Z,96.60
2018-01-31T14:47:13.705Z,97.40
2018-01-31T14:49:40.155Z,97.40
2018-01-31T14:52:07.070Z,96.90
2018-01-31T14:54:33.226Z,96.90
2018-01-31T14:56:59.385Z,97.80
2018-01-31T14:59:25.562Z,97.50
2018-01-31T15:01:51.707Z,96.00
2018-01-31T15:04:17.873Z,96.40
2018-01-31T15:06:44.029Z,96.90
2018-01-31T15:09:10.173Z,99.70
2018-01-31T15:11:36.307Z,99.90
2018-01-31T15:14:02.481Z,99.90
2018-01-31T15:16:28.644Z,99.00
2018-01-31T15:18:54.910Z,99.90
2018-01-31T15:21:21.097Z,99.90
2018-01-31T15:23:47.273Z,99.80
2018-01-31T15:26:14.237Z,99.90
2018-01-31T15:28:41.155Z,99.80
2018-01-31T15:31:07.346Z,99.70
2018-01-31T15:33:33.546Z,99.90
2018-01-31T15:35:59.717Z,99.50
2018-01-31T15:38:25.908Z,99.90
2018-01-31T15:40:52.102Z,99.10
2018-01-31T15:43:19.053Z,99.90
2018-01-31T15:45:45.253Z,99.90
2018-01-31T15:48:11.410Z,99.90
2018-01-31T15:50:37.647Z,99.90
2018-01-31T15:53:05.176Z,99.90
2018-01-31T15:55:31.431Z,99.90
2018-01-31T15:57:57.626Z,99.90
2018-01-31T16:00:23.789Z,99.90
2018-01-31T16:02:49.917Z,99.90
2018-01-31T16:05:16.121Z,99.90
2018-01-31T16:07:42.385Z,99.90
2018-01-31T16:10:09.283Z,99.90
2018-01-31T16:12:35.438Z,99.90
2018-01-31T16:15:01.618Z,99.90
2018-01-31T16:17:28.027Z,99.90
2018-01-31T16:20:07.292Z,99.90
2018-01-31T16:22:33.742Z,99.90
2018-01-31T16:25:00.165Z,99.90
2018-01-31T16:27:27.580Z,99.90
2018-01-31T16:30:15.654Z,99.90
2018-01-31T16:35:38.469Z,99.90
2018-01-31T16:38:04.891Z,99.90
2018-01-31T16:40:31.344Z,99.90
2018-01-31T16:42:57.779Z,99.90
2018-01-31T16:45:24.261Z,99.90
2018-01-31T16:47:50.864Z,99.90
2018-01-31T16:50:17.321Z,99.90
2018-01-31T16:52:43.800Z,99.90
2018-01-31T16:55:10.246Z,99.90
2018-01-31T16:57:36.729Z,99.90
2018-01-31T17:00:03.866Z,99.90
2018-01-31T17:02:31.094Z,99.90
2018-01-31T17:04:57.512Z,99.90
2018-01-31T17:07:24.003Z,99.90
2018-01-31T17:09:51.318Z,99.90
2018-01-31T17:12:17.766Z,99.90
2018-01-31T17:14:44.193Z,99.90
2018-01-31T17:17:10.773Z,99.90
2018-01-31T17:19:37.152Z,99.90
2018-01-31T17:22:03.688Z,99.90
2018-01-31T17:24:30.153Z,99.90
2018-01-31T17:26:57.306Z,99.90
2018-01-31T17:29:23.722Z,99.90
2018-01-31T17:31:50.133Z,99.90
2018-01-31T17:34:16.532Z,99.90
2018-01-31T17:36:43.028Z,99.90
2018-01-31T17:39:09.401Z,99.90
2018-01-31T17:41:35.801Z,99.90
2018-01-31T17:44:02.198Z,99.90
2018-01-31T17:46:28.595Z,99.90
2018-01-31T17:48:55.830Z,99.90
2018-01-31T17:51:23.008Z,99.90
2018-01-31T17:53:49.433Z,99.90
2018-01-31T17:56:16.647Z,99.90
2018-01-31T17:58:43.086Z,99.90
2018-01-31T18:01:09.533Z,99.90
2018-01-31T18:03:36.711Z,99.90
2018-01-31T18:06:03.862Z,99.90
2018-01-31T18:08:31.026Z,99.90
2018-01-31T18:10:57.506Z,99.90
2018-01-31T18:13:23.970Z,99.90
2018-01-31T18:15:51.169Z,99.90
2018-01-31T18:18:17.561Z,99.90
2018-01-31T18:20:44.704Z,99.90
2018-01-31T18:23:11.874Z,99.90
2018-01-31T18:25:39.029Z,99.90
2018-01-31T18:28:09.305Z,99.90
2018-01-31T18:30:38.794Z,99.90
2018-01-31T18:33:08.752Z,99.90
2018-01-31T18:35:35.181Z,99.90
2018-01-31T18:38:01.599Z,99.90
2018-01-31T18:40:28.058Z,99.90
2018-01-31T18:42:54.479Z,99.90
2018-01-31T18:45:20.885Z,99.90
2018-01-31T18:47:47.289Z,99.90
2018-01-31T18:50:13.725Z,99.90
2018-01-31T18:52:40.509Z,99.90
2018-01-31T18:55:07.038Z,99.90
2018-01-31T18:57:33.541Z,99.90
2018-01-31T18:59:59.947Z,99.90
2018-01-31T19:02:27.160Z,99.90
2018-01-31T19:04:53.594Z,99.90
2018-01-31T19:07:20.001Z,99.90
2018-01-31T19:09:46.534Z,99.90
2018-01-31T19:12:12.964Z,99.90
2018-01-31T19:14:39.357Z,99.90
2018-01-31T19:17:05.771Z,99.90
2018-01-31T19:19:32.182Z,99.90
2018-01-31T19:21:58.617Z,99.90
2018-01-31T19:24:25.049Z,99.90
2018-01-31T19:26:51.492Z,99.90
2018-01-31T19:29:17.882Z,99.90
2018-01-31T19:31:45.091Z,99.90
2018-01-31T19:34:15.870Z,99.90
2018-01-31T19:36:45.690Z,99.90
2018-01-31T19:39:16.401Z,99.90
2018-01-31T19:41:42.844Z,99.90
2018-01-31T19:44:09.299Z,99.90
2018-01-31T19:46:36.476Z,99.90
2018-01-31T19:49:02.907Z,99.90
2018-01-31T19:51:29.398Z,99.90
2018-01-31T19:53:55.877Z,99.90
2018-01-31T19:56:22.305Z,99.90
2018-01-31T19:58:48.742Z,99.90
2018-01-31T20:01:15.204Z,99.90
2018-01-31T20:03:41.585Z,99.90
2018-01-31T20:06:08.774Z,99.90
2018-01-31T20:08:35.253Z,99.90
2018-01-31T20:11:01.657Z,99.90
2018-01-31T20:13:28.074Z,99.90
2018-01-31T20:15:54.538Z,99.90
2018-01-31T20:18:20.930Z,99.90
2018-01-31T20:20:47.377Z,99.90
2018-01-31T20:23:13.827Z,99.90
2018-01-31T20:25:40.255Z,99.90
2018-01-31T20:28:06.695Z,99.90
2018-01-31T20:30:33.126Z,99.90
2018-01-31T20:32:59.524Z,99.90
2018-01-31T20:35:26.723Z,99.90
2018-01-31T20:37:53.140Z,99.90
2018-01-31T20:40:19.544Z,99.90
2018-01-31T20:42:46.704Z,99.90
2018-01-31T20:45:13.235Z,99.90
2018-01-31T20:47:40.410Z,99.90
2018-01-31T20:50:06.822Z,99.90
2018-01-31T20:52:34.043Z,99.90
2018-01-31T20:55:00.633Z,99.90
2018-01-31T20:57:27.146Z,99.90
2018-01-31T20:59:53.663Z,99.90
2018-01-31T21:02:20.094Z,99.90
2018-01-31T21:04:46.521Z,99.90
2018-01-31T21:07:12.943Z,99.90
2018-01-31T21:09:39.426Z,99.90
2018-01-31T21:12:06.587Z,99.90
2018-01-31T21:14:33.731Z,99.90
2018-01-31T21:17:00.925Z,99.90
2018-01-31T21:19:27.382Z,99.90
2018-01-31T21:21:53.813Z,99.90
2018-01-31T21:24:20.243Z,99.90
2018-01-31T21:26:46.650Z,99.90
2018-01-31T21:29:13.084Z,99.90
2018-01-31T21:31:39.519Z,99.90
2018-01-31T21:34:05.914Z,99.90
2018-01-31T21:36:33.070Z,99.90
2018-01-31T21:39:00.297Z,99.90
2018-01-31T21:41:26.702Z,99.90
2018-01-31T21:43:53.162Z,99.90
2018-01-31T21:46:19.591Z,99.90
2018-01-31T21:48:46.015Z,99.90
2018-01-31T21:51:12.442Z,99.90
2018-01-31T21:53:38.913Z,99.90
2018-01-31T21:56:05.302Z,99.90
2018-01-31T21:58:31.729Z,99.90
2018-01-31T22:00:58.197Z,99.90
2018-01-31T22:03:24.641Z,99.90
2018-01-31T22:05:51.098Z,99.90
2018-01-31T22:08:17.515Z,99.90
2018-01-31T22:10:43.937Z,99.90
2018-01-31T22:13:10.384Z,99.90
2018-01-31T22:15:36.784Z,99.90
2018-01-31T22:18:03.210Z,99.90
2018-01-31T22:20:29.641Z,99.90
2018-01-31T22:22:56.038Z,99.90
2018-01-31T22:25:22.463Z,99.90
2018-01-31T22:27:48.883Z,99.90
2018-01-31T22:30:15.325Z,99.90
2018-01-31T22:32:41.738Z,99.90
2018-01-31T22:35:08.165Z,99.90
2018-01-31T22:37:34.572Z,99.90
2018-01-31T22:40:01.012Z,99.90
2018-01-31T22:42:27.456Z,99.90
2018-01-31T22:44:53.935Z,99.90
2018-01-31T22:47:21.134Z,99.90
2018-01-31T22:49:47.613Z,99.90
2018-01-31T22:52:14.031Z,99.90
2018-01-31T22:54:40.467Z,99.90
2018-01-31T22:57:06.887Z,99.90
2018-01-31T22:59:33.352Z,99.90
2018-01-31T23:01:59.798Z,99.90
2018-01-31T23:04:26.215Z,99.90
2018-01-31T23:06:52.669Z,99.90
2018-01-31T23:09:19.082Z,99.90
2018-01-31T23:11:45.486Z,99.90
2018-01-31T23:14:18.041Z,99.90
2018-01-31T23:16:45.210Z,99.90
2018-01-31T23:19:11.638Z,99.90
2018-01-31T23:21:38.055Z,99.90
2018-01-31T23:24:05.255Z,99.90
2018-01-31T23:26:31.702Z,99.90
2018-01-31T23:28:58.153Z,99.90
2018-01-31T23:31:24.600Z,99.90
2018-01-31T23:33:50.995Z,99.90
2018-01-31T23:36:17.427Z,99.90
2018-01-31T23:38:43.849Z,99.90
2018-01-31T23:41:10.264Z,99.90
2018-01-31T23:43:37.400Z,99.90
2018-01-31T23:46:04.550Z,99.90
2018-01-31T23:48:31.785Z,99.90
2018-01-31T23:50:58.956Z,99.90
2018-01-31T23:53:26.118Z,99.90
2018-01-31T23:55:53.305Z,99.90
2018-01-31T23:58:19.707Z,99.90
